sensor_id;sensor_type;location;lat;lon;timestamp;temperature;humidity
8067;DHT22;4076;48.076;9.118;2023-02-28T00:00:13;-2.40;99.90
8067;DHT22;4076;48.076;9.118;2023-02-28T00:02:41;-2.40;99.90
8067;DHT22;4076;48.076;9.118;2023-02-28T00:05:08;-2.40;99.90
8067;DHT22;4076;48.076;9.118;2023-02-28T00:07:34;-2.40;99.90
8067;DHT22;4076;48.076;9.118;2023-02-28T00:10:00;-2.40;99.90
8067;DHT22;4076;48.076;9.118;2023-02-28T00:12:26;-2.60;99.90
8067;DHT22;4076;48.076;9.118;2023-02-28T00:14:52;-2.60;99.90
8067;DHT22;4076;48.076;9.118;2023-02-28T00:17:17;-2.60;99.90
8067;DHT22;4076;48.076;9.118;2023-02-28T00:19:47;-2.60;99.90
8067;DHT22;4076;48.076;9.118;2023-02-28T00:22:14;-2.60;99.90
8067;DHT22;4076;48.076;9.118;2023-02-28T00:24:39;-2.50;99.90
8067;DHT22;4076;48.076;9.118;2023-02-28T00:27:05;-2.50;99.90
8067;DHT22;4076;48.076;9.118;2023-02-28T00:29:30;-2.50;99.90
8067;DHT22;4076;48.076;9.118;2023-02-28T00:31:56;-2.50;99.90
8067;DHT22;4076;48.076;9.118;2023-02-28T00:34:22;-2.50;99.90
8067;DHT22;4076;48.076;9.118;2023-02-28T00:36:47;-2.40;99.90
8067;DHT22;4076;48.076;9.118;2023-02-28T00:39:16;-2.40;99.90
8067;DHT22;4076;48.076;9.118;2023-02-28T00:41:41;-2.40;99.90
8067;DHT22;4076;48.076;9.118;2023-02-28T00:44:07;-2.50;99.90
8067;DHT22;4076;48.076;9.118;2023-02-28T00:46:32;-2.50;99.90
8067;DHT22;4076;48.076;9.118;2023-02-28T00:48:58;-2.50;99.90
8067;DHT22;4076;48.076;9.118;2023-02-28T00:51:24;-2.50;99.90
8067;DHT22;4076;48.076;9.118;2023-02-28T00:53:49;-2.50;99.90
8067;DHT22;4076;48.076;9.118;2023-02-28T00:56:15;-2.40;99.90
8067;DHT22;4076;48.076;9.118;2023-02-28T00:58:40;-2.50;99.90
8067;DHT22;4076;48.076;9.118;2023-02-28T01:01:06;-2.50;99.90
8067;DHT22;4076;48.076;9.118;2023-02-28T01:03:31;-2.40;99.90
8067;DHT22;4076;48.076;9.118;2023-02-28T01:05:57;-2.40;99.90
8067;DHT22;4076;48.076;9.118;2023-02-28T01:08:23;-2.50;99.90
8067;DHT22;4076;48.076;9.118;2023-02-28T01:10:48;-2.60;99.90
8067;DHT22;4076;48.076;9.118;2023-02-28T01:13:14;-2.50;99.90
8067;DHT22;4076;48.076;9.118;2023-02-28T01:15:43;-2.50;99.90
8067;DHT22;4076;48.076;9.118;2023-02-28T01:18:10;-2.50;99.90
8067;DHT22;4076;48.076;9.118;2023-02-28T01:20:37;-2.50;99.90
8067;DHT22;4076;48.076;9.118;2023-02-28T01:23:03;-2.50;99.90
8067;DHT22;4076;48.076;9.118;2023-02-28T01:25:28;-2.50;99.90
8067;DHT22;4076;48.076;9.118;2023-02-28T01:27:54;-2.50;99.90
8067;DHT22;4076;48.076;9.118;2023-02-28T01:30:19;-2.60;99.90
8067;DHT22;4076;48.076;9.118;2023-02-28T01:32:45;-2.60;99.90
8067;DHT22;4076;48.076;9.118;2023-02-28T01:35:10;-2.60;99.90
8067;DHT22;4076;48.076;9.118;2023-02-28T01:37:36;-2.50;99.90
8067;DHT22;4076;48.076;9.118;2023-02-28T01:40:02;-2.50;99.90
8067;DHT22;4076;48.076;9.118;2023-02-28T01:42:28;-2.50;99.90
8067;DHT22;4076;48.076;9.118;2023-02-28T01:48:01;-2.50;99.90
8067;DHT22;4076;48.076;9.118;2023-02-28T01:50:31;-2.40;99.90
8067;DHT22;4076;48.076;9.118;2023-02-28T01:53:01;-2.50;99.90
8067;DHT22;4076;48.076;9.118;2023-02-28T01:55:30;-2.50;99.90
8067;DHT22;4076;48.076;9.118;2023-02-28T01:57:58;-2.50;99.90
8067;DHT22;4076;48.076;9.118;2023-02-28T02:00:26;-2.50;99.90
8067;DHT22;4076;48.076;9.118;2023-02-28T02:02:56;-2.40;99.90
8067;DHT22;4076;48.076;9.118;2023-02-28T02:05:25;-2.50;99.90
8067;DHT22;4076;48.076;9.118;2023-02-28T02:08:12;-2.40;99.90
8067;DHT22;4076;48.076;9.118;2023-02-28T02:10:52;-2.50;99.90
8067;DHT22;4076;48.076;9.118;2023-02-28T02:19:46;-2.50;99.90
8067;DHT22;4076;48.076;9.118;2023-02-28T02:25:32;-2.50;99.90
8067;DHT22;4076;48.076;9.118;2023-02-28T02:36:59;-2.50;99.90
8067;DHT22;4076;48.076;9.118;2023-02-28T02:39:34;-2.50;99.90
8067;DHT22;4076;48.076;9.118;2023-02-28T02:42:12;-2.50;99.90
8067;DHT22;4076;48.076;9.118;2023-02-28T02:44:43;-2.50;99.90
8067;DHT22;4076;48.076;9.118;2023-02-28T02:47:15;-2.50;99.90
8067;DHT22;4076;48.076;9.118;2023-02-28T02:49:47;-2.50;99.90
8067;DHT22;4076;48.076;9.118;2023-02-28T02:52:16;-2.50;99.90
8067;DHT22;4076;48.076;9.118;2023-02-28T02:54:45;-2.50;99.90
8067;DHT22;4076;48.076;9.118;2023-02-28T02:57:17;-2.40;99.90
8067;DHT22;4076;48.076;9.118;2023-02-28T02:59:45;-2.40;99.90
8067;DHT22;4076;48.076;9.118;2023-02-28T03:02:13;-2.50;99.90
8067;DHT22;4076;48.076;9.118;2023-02-28T03:04:46;-2.40;99.90
8067;DHT22;4076;48.076;9.118;2023-02-28T03:07:13;-2.30;99.90
8067;DHT22;4076;48.076;9.118;2023-02-28T03:09:39;-2.40;99.90
8067;DHT22;4076;48.076;9.118;2023-02-28T03:12:09;-2.40;99.90
8067;DHT22;4076;48.076;9.118;2023-02-28T03:17:33;-2.50;99.90
8067;DHT22;4076;48.076;9.118;2023-02-28T03:20:29;-2.50;99.90
8067;DHT22;4076;48.076;9.118;2023-02-28T03:28:18;-2.40;99.90
8067;DHT22;4076;48.076;9.118;2023-02-28T03:30:52;-2.30;99.90
8067;DHT22;4076;48.076;9.118;2023-02-28T03:33:33;-2.30;99.90
8067;DHT22;4076;48.076;9.118;2023-02-28T03:36:30;-2.30;99.90
8067;DHT22;4076;48.076;9.118;2023-02-28T03:39:07;-2.30;99.90
8067;DHT22;4076;48.076;9.118;2023-02-28T03:41:45;-2.30;99.90
8067;DHT22;4076;48.076;9.118;2023-02-28T03:44:23;-2.30;99.90
8067;DHT22;4076;48.076;9.118;2023-02-28T03:47:09;-2.30;99.90
8067;DHT22;4076;48.076;9.118;2023-02-28T03:49:42;-2.30;99.90
8067;DHT22;4076;48.076;9.118;2023-02-28T03:52:11;-2.30;99.90
8067;DHT22;4076;48.076;9.118;2023-02-28T03:54:42;-2.30;99.90
8067;DHT22;4076;48.076;9.118;2023-02-28T03:57:22;-2.30;99.90
8067;DHT22;4076;48.076;9.118;2023-02-28T03:59:58;-2.30;99.90
8067;DHT22;4076;48.076;9.118;2023-02-28T04:02:25;-2.30;99.90
8067;DHT22;4076;48.076;9.118;2023-02-28T04:04:50;-2.30;99.90
8067;DHT22;4076;48.076;9.118;2023-02-28T04:07:17;-2.30;99.90
8067;DHT22;4076;48.076;9.118;2023-02-28T04:09:42;-2.30;99.90
8067;DHT22;4076;48.076;9.118;2023-02-28T04:12:08;-2.30;99.90
8067;DHT22;4076;48.076;9.118;2023-02-28T04:14:34;-2.30;99.90
8067;DHT22;4076;48.076;9.118;2023-02-28T04:16:59;-2.20;99.90
8067;DHT22;4076;48.076;9.118;2023-02-28T04:19:25;-2.20;99.90
8067;DHT22;4076;48.076;9.118;2023-02-28T04:21:52;-2.30;99.90
8067;DHT22;4076;48.076;9.118;2023-02-28T04:24:24;-2.30;99.90
8067;DHT22;4076;48.076;9.118;2023-02-28T04:26:53;-2.30;99.90
8067;DHT22;4076;48.076;9.118;2023-02-28T04:29:22;-2.40;99.90
8067;DHT22;4076;48.076;9.118;2023-02-28T04:31:47;-2.30;99.90
8067;DHT22;4076;48.076;9.118;2023-02-28T04:34:13;-2.30;99.90
8067;DHT22;4076;48.076;9.118;2023-02-28T04:36:39;-2.30;99.90
8067;DHT22;4076;48.076;9.118;2023-02-28T04:39:04;-2.30;99.90
8067;DHT22;4076;48.076;9.118;2023-02-28T04:41:30;-2.30;99.90
8067;DHT22;4076;48.076;9.118;2023-02-28T04:43:56;-2.30;99.90
8067;DHT22;4076;48.076;9.118;2023-02-28T04:46:22;-2.30;99.90
8067;DHT22;4076;48.076;9.118;2023-02-28T04:48:48;-2.30;99.90
8067;DHT22;4076;48.076;9.118;2023-02-28T04:51:15;-2.30;99.90
8067;DHT22;4076;48.076;9.118;2023-02-28T04:53:42;-2.20;99.90
8067;DHT22;4076;48.076;9.118;2023-02-28T04:56:10;-2.20;99.90
8067;DHT22;4076;48.076;9.118;2023-02-28T04:58:36;-2.30;99.90
8067;DHT22;4076;48.076;9.118;2023-02-28T05:01:04;-2.30;99.90
8067;DHT22;4076;48.076;9.118;2023-02-28T05:03:30;-2.40;99.90
8067;DHT22;4076;48.076;9.118;2023-02-28T05:05:56;-2.30;99.90
8067;DHT22;4076;48.076;9.118;2023-02-28T05:08:21;-2.30;99.90
8067;DHT22;4076;48.076;9.118;2023-02-28T05:10:47;-2.30;99.90
8067;DHT22;4076;48.076;9.118;2023-02-28T05:13:12;-2.30;99.90
8067;DHT22;4076;48.076;9.118;2023-02-28T05:15:38;-2.30;99.90
8067;DHT22;4076;48.076;9.118;2023-02-28T05:18:04;-2.30;99.90
8067;DHT22;4076;48.076;9.118;2023-02-28T05:20:29;-2.40;99.90
8067;DHT22;4076;48.076;9.118;2023-02-28T05:22:55;-2.40;99.90
8067;DHT22;4076;48.076;9.118;2023-02-28T05:25:22;-2.40;99.90
8067;DHT22;4076;48.076;9.118;2023-02-28T05:27:48;-2.40;99.90
8067;DHT22;4076;48.076;9.118;2023-02-28T05:30:13;-2.40;99.90
8067;DHT22;4076;48.076;9.118;2023-02-28T05:32:40;-2.40;99.90
8067;DHT22;4076;48.076;9.118;2023-02-28T05:35:09;-2.40;99.90
8067;DHT22;4076;48.076;9.118;2023-02-28T05:37:35;-2.40;99.90
8067;DHT22;4076;48.076;9.118;2023-02-28T05:40:02;-2.40;99.90
8067;DHT22;4076;48.076;9.118;2023-02-28T05:42:31;-2.40;99.90
8067;DHT22;4076;48.076;9.118;2023-02-28T05:44:56;-2.40;99.90
8067;DHT22;4076;48.076;9.118;2023-02-28T05:47:22;-2.50;99.90
8067;DHT22;4076;48.076;9.118;2023-02-28T05:49:47;-2.50;99.90
8067;DHT22;4076;48.076;9.118;2023-02-28T05:52:13;-2.50;99.90
8067;DHT22;4076;48.076;9.118;2023-02-28T05:54:38;-2.50;99.90
8067;DHT22;4076;48.076;9.118;2023-02-28T05:57:04;-2.40;99.90
8067;DHT22;4076;48.076;9.118;2023-02-28T05:59:30;-2.40;99.90
8067;DHT22;4076;48.076;9.118;2023-02-28T06:01:55;-2.40;99.90
8067;DHT22;4076;48.076;9.118;2023-02-28T06:04:21;-2.40;99.90
8067;DHT22;4076;48.076;9.118;2023-02-28T06:06:48;-2.40;99.90
8067;DHT22;4076;48.076;9.118;2023-02-28T06:09:14;-2.40;99.90
8067;DHT22;4076;48.076;9.118;2023-02-28T06:11:40;-2.40;99.90
8067;DHT22;4076;48.076;9.118;2023-02-28T06:14:06;-2.40;99.90
8067;DHT22;4076;48.076;9.118;2023-02-28T06:16:34;-2.40;99.90
8067;DHT22;4076;48.076;9.118;2023-02-28T06:19:03;-2.40;99.90
8067;DHT22;4076;48.076;9.118;2023-02-28T06:21:29;-2.40;99.90
8067;DHT22;4076;48.076;9.118;2023-02-28T06:23:57;-2.40;99.90
8067;DHT22;4076;48.076;9.118;2023-02-28T06:26:23;-2.40;99.90
8067;DHT22;4076;48.076;9.118;2023-02-28T06:28:48;-2.40;99.90
8067;DHT22;4076;48.076;9.118;2023-02-28T06:31:16;-2.40;99.90
8067;DHT22;4076;48.076;9.118;2023-02-28T06:33:43;-2.30;99.90
8067;DHT22;4076;48.076;9.118;2023-02-28T06:36:11;-2.40;99.90
8067;DHT22;4076;48.076;9.118;2023-02-28T06:38:38;-2.40;99.90
8067;DHT22;4076;48.076;9.118;2023-02-28T06:41:04;-2.40;99.90
8067;DHT22;4076;48.076;9.118;2023-02-28T06:43:33;-2.30;99.90
8067;DHT22;4076;48.076;9.118;2023-02-28T06:46:01;-2.30;99.90
8067;DHT22;4076;48.076;9.118;2023-02-28T06:48:27;-2.30;99.90
8067;DHT22;4076;48.076;9.118;2023-02-28T06:51:08;-2.30;99.90
8067;DHT22;4076;48.076;9.118;2023-02-28T06:53:34;-2.30;99.90
8067;DHT22;4076;48.076;9.118;2023-02-28T06:56:03;-2.30;99.90
8067;DHT22;4076;48.076;9.118;2023-02-28T06:58:29;-2.30;99.90
8067;DHT22;4076;48.076;9.118;2023-02-28T07:00:54;-2.30;99.90
8067;DHT22;4076;48.076;9.118;2023-02-28T07:03:20;-2.20;99.90
8067;DHT22;4076;48.076;9.118;2023-02-28T07:05:45;-2.20;99.90
8067;DHT22;4076;48.076;9.118;2023-02-28T07:08:11;-2.20;99.90
8067;DHT22;4076;48.076;9.118;2023-02-28T07:10:38;-2.20;99.90
8067;DHT22;4076;48.076;9.118;2023-02-28T07:13:05;-2.20;99.90
8067;DHT22;4076;48.076;9.118;2023-02-28T07:15:30;-2.20;99.90
8067;DHT22;4076;48.076;9.118;2023-02-28T07:17:56;-2.20;99.90
8067;DHT22;4076;48.076;9.118;2023-02-28T07:20:22;-2.10;99.90
8067;DHT22;4076;48.076;9.118;2023-02-28T07:22:48;-2.20;99.90
8067;DHT22;4076;48.076;9.118;2023-02-28T07:25:21;-2.20;99.90
8067;DHT22;4076;48.076;9.118;2023-02-28T07:27:46;-2.20;99.90
8067;DHT22;4076;48.076;9.118;2023-02-28T07:30:12;-2.20;99.90
8067;DHT22;4076;48.076;9.118;2023-02-28T07:32:38;-2.20;99.90
8067;DHT22;4076;48.076;9.118;2023-02-28T07:35:04;-2.10;99.90
8067;DHT22;4076;48.076;9.118;2023-02-28T07:37:29;-2.00;99.90
8067;DHT22;4076;48.076;9.118;2023-02-28T07:39:56;-2.00;99.90
8067;DHT22;4076;48.076;9.118;2023-02-28T07:42:22;-2.00;99.90
8067;DHT22;4076;48.076;9.118;2023-02-28T07:44:48;-2.00;99.90
8067;DHT22;4076;48.076;9.118;2023-02-28T07:47:14;-2.00;99.90
8067;DHT22;4076;48.076;9.118;2023-02-28T07:49:39;-1.90;99.90
8067;DHT22;4076;48.076;9.118;2023-02-28T07:52:06;-1.90;99.90
8067;DHT22;4076;48.076;9.118;2023-02-28T07:54:32;-1.90;99.90
8067;DHT22;4076;48.076;9.118;2023-02-28T07:56:58;-1.90;99.90
8067;DHT22;4076;48.076;9.118;2023-02-28T07:59:24;-1.90;99.90
8067;DHT22;4076;48.076;9.118;2023-02-28T08:01:50;-1.90;99.90
8067;DHT22;4076;48.076;9.118;2023-02-28T08:04:17;-1.80;99.90
8067;DHT22;4076;48.076;9.118;2023-02-28T08:06:43;-1.80;99.90
8067;DHT22;4076;48.076;9.118;2023-02-28T08:09:08;-1.70;99.90
8067;DHT22;4076;48.076;9.118;2023-02-28T08:11:34;-1.70;99.90
8067;DHT22;4076;48.076;9.118;2023-02-28T08:14:00;-1.60;99.90
8067;DHT22;4076;48.076;9.118;2023-02-28T08:16:25;-1.60;99.90
8067;DHT22;4076;48.076;9.118;2023-02-28T08:18:52;-1.60;99.90
8067;DHT22;4076;48.076;9.118;2023-02-28T08:21:18;-1.70;99.90
8067;DHT22;4076;48.076;9.118;2023-02-28T08:23:47;-1.70;99.90
8067;DHT22;4076;48.076;9.118;2023-02-28T08:26:12;-1.60;99.90
8067;DHT22;4076;48.076;9.118;2023-02-28T08:28:38;-1.60;99.90
8067;DHT22;4076;48.076;9.118;2023-02-28T08:31:09;-1.60;99.90
8067;DHT22;4076;48.076;9.118;2023-02-28T08:33:35;-1.50;99.90
8067;DHT22;4076;48.076;9.118;2023-02-28T08:36:01;-1.50;99.90
8067;DHT22;4076;48.076;9.118;2023-02-28T08:38:27;-1.50;99.90
8067;DHT22;4076;48.076;9.118;2023-02-28T08:41:00;-1.50;99.90
8067;DHT22;4076;48.076;9.118;2023-02-28T08:43:26;-1.40;99.90
8067;DHT22;4076;48.076;9.118;2023-02-28T08:45:53;-1.40;99.90
8067;DHT22;4076;48.076;9.118;2023-02-28T08:48:18;-1.40;99.90
8067;DHT22;4076;48.076;9.118;2023-02-28T08:50:44;-1.50;99.90
8067;DHT22;4076;48.076;9.118;2023-02-28T08:53:09;-1.40;99.90
8067;DHT22;4076;48.076;9.118;2023-02-28T08:55:35;-1.40;99.90
8067;DHT22;4076;48.076;9.118;2023-02-28T08:58:01;-1.30;99.90
8067;DHT22;4076;48.076;9.118;2023-02-28T09:00:27;-1.30;99.90
8067;DHT22;4076;48.076;9.118;2023-02-28T09:02:52;-1.20;99.90
8067;DHT22;4076;48.076;9.118;2023-02-28T09:05:18;-1.20;99.90
8067;DHT22;4076;48.076;9.118;2023-02-28T09:07:44;-1.20;99.90
8067;DHT22;4076;48.076;9.118;2023-02-28T09:10:10;-1.30;99.90
8067;DHT22;4076;48.076;9.118;2023-02-28T09:12:35;-1.30;99.90
8067;DHT22;4076;48.076;9.118;2023-02-28T09:15:02;-1.20;99.90
8067;DHT22;4076;48.076;9.118;2023-02-28T09:17:28;-1.30;99.90
8067;DHT22;4076;48.076;9.118;2023-02-28T09:19:53;-1.30;99.90
8067;DHT22;4076;48.076;9.118;2023-02-28T09:22:19;-1.30;99.90
8067;DHT22;4076;48.076;9.118;2023-02-28T09:24:44;-1.20;99.90
8067;DHT22;4076;48.076;9.118;2023-02-28T09:27:10;-1.10;99.90
8067;DHT22;4076;48.076;9.118;2023-02-28T09:29:35;-1.20;99.90
8067;DHT22;4076;48.076;9.118;2023-02-28T09:32:01;-1.20;99.90
8067;DHT22;4076;48.076;9.118;2023-02-28T09:34:27;-1.20;99.90
8067;DHT22;4076;48.076;9.118;2023-02-28T09:36:53;-1.10;99.90
8067;DHT22;4076;48.076;9.118;2023-02-28T09:39:21;-1.10;99.90
8067;DHT22;4076;48.076;9.118;2023-02-28T09:41:50;-1.10;99.90
8067;DHT22;4076;48.076;9.118;2023-02-28T09:44:31;-1.10;99.90
8067;DHT22;4076;48.076;9.118;2023-02-28T09:47:16;-1.10;99.90
8067;DHT22;4076;48.076;9.118;2023-02-28T09:49:46;-1.00;99.90
8067;DHT22;4076;48.076;9.118;2023-02-28T09:52:17;-0.90;99.90
8067;DHT22;4076;48.076;9.118;2023-02-28T09:54:44;-0.90;99.90
8067;DHT22;4076;48.076;9.118;2023-02-28T09:57:33;-1.00;99.90
8067;DHT22;4076;48.076;9.118;2023-02-28T10:03:13;-1.00;99.80
8067;DHT22;4076;48.076;9.118;2023-02-28T10:05:54;-0.90;99.60
8067;DHT22;4076;48.076;9.118;2023-02-28T10:08:32;-0.90;99.20
8067;DHT22;4076;48.076;9.118;2023-02-28T10:11:01;-0.90;99.90
8067;DHT22;4076;48.076;9.118;2023-02-28T10:19:17;-0.80;98.70
8067;DHT22;4076;48.076;9.118;2023-02-28T10:24:42;-0.80;98.20
8067;DHT22;4076;48.076;9.118;2023-02-28T10:27:17;-0.80;99.50
8067;DHT22;4076;48.076;9.118;2023-02-28T10:29:45;-0.60;98.40
8067;DHT22;4076;48.076;9.118;2023-02-28T10:32:14;-0.40;99.30
8067;DHT22;4076;48.076;9.118;2023-02-28T10:34:40;-0.30;97.30
8067;DHT22;4076;48.076;9.118;2023-02-28T10:37:06;-0.30;95.90
8067;DHT22;4076;48.076;9.118;2023-02-28T10:42:05;-0.60;96.40
8067;DHT22;4076;48.076;9.118;2023-02-28T10:44:43;-0.60;97.00
8067;DHT22;4076;48.076;9.118;2023-02-28T10:47:15;-0.60;97.20
8067;DHT22;4076;48.076;9.118;2023-02-28T10:49:47;-0.60;96.30
8067;DHT22;4076;48.076;9.118;2023-02-28T10:52:13;-0.70;96.00
8067;DHT22;4076;48.076;9.118;2023-02-28T10:54:39;-0.70;96.40
8067;DHT22;4076;48.076;9.118;2023-02-28T10:57:24;-0.60;97.40
8067;DHT22;4076;48.076;9.118;2023-02-28T11:00:17;-0.30;98.20
8067;DHT22;4076;48.076;9.118;2023-02-28T11:02:38;-0.20;96.10
8067;DHT22;4076;48.076;9.118;2023-02-28T11:05:32;-0.20;95.40
8067;DHT22;4076;48.076;9.118;2023-02-28T11:08:13;-0.10;95.50
8067;DHT22;4076;48.076;9.118;2023-02-28T11:10:39;0.00;95.60
8067;DHT22;4076;48.076;9.118;2023-02-28T11:13:17;0.10;95.40
8067;DHT22;4076;48.076;9.118;2023-02-28T11:15:51;0.10;93.90
8067;DHT22;4076;48.076;9.118;2023-02-28T11:18:23;0.00;94.00
8067;DHT22;4076;48.076;9.118;2023-02-28T11:20:51;0.00;94.80
8067;DHT22;4076;48.076;9.118;2023-02-28T11:23:18;0.20;94.30
8067;DHT22;4076;48.076;9.118;2023-02-28T11:25:51;0.20;93.90
8067;DHT22;4076;48.076;9.118;2023-02-28T11:28:37;0.30;93.80
8067;DHT22;4076;48.076;9.118;2023-02-28T11:31:17;0.20;93.30
8067;DHT22;4076;48.076;9.118;2023-02-28T11:36:29;0.20;93.70
8067;DHT22;4076;48.076;9.118;2023-02-28T11:39:15;0.30;92.60
8067;DHT22;4076;48.076;9.118;2023-02-28T11:44:45;0.40;91.90
8067;DHT22;4076;48.076;9.118;2023-02-28T11:52:56;0.20;90.80
8067;DHT22;4076;48.076;9.118;2023-02-28T11:58:00;0.20;90.80
8067;DHT22;4076;48.076;9.118;2023-02-28T12:05:49;0.20;90.30
8067;DHT22;4076;48.076;9.118;2023-02-28T12:08:23;0.30;88.60
8067;DHT22;4076;48.076;9.118;2023-02-28T12:10:57;0.10;88.30
8067;DHT22;4076;48.076;9.118;2023-02-28T12:13:28;0.00;89.40
8067;DHT22;4076;48.076;9.118;2023-02-28T12:19:12;-0.10;89.60
8067;DHT22;4076;48.076;9.118;2023-02-28T12:21:55;0.00;90.30
8067;DHT22;4076;48.076;9.118;2023-02-28T12:24:48;0.20;90.10
8067;DHT22;4076;48.076;9.118;2023-02-28T12:27:19;0.40;89.70
8067;DHT22;4076;48.076;9.118;2023-02-28T12:29:56;0.40;88.00
8067;DHT22;4076;48.076;9.118;2023-02-28T12:32:30;0.50;87.50
8067;DHT22;4076;48.076;9.118;2023-02-28T12:41:12;0.80;86.70
8067;DHT22;4076;48.076;9.118;2023-02-28T12:43:44;0.90;86.90
8067;DHT22;4076;48.076;9.118;2023-02-28T12:46:17;0.90;85.00
8067;DHT22;4076;48.076;9.118;2023-02-28T12:48:56;0.90;83.30
8067;DHT22;4076;48.076;9.118;2023-02-28T12:51:23;1.00;83.90
8067;DHT22;4076;48.076;9.118;2023-02-28T12:57:18;0.90;84.00
8067;DHT22;4076;48.076;9.118;2023-02-28T13:05:46;1.20;80.70
8067;DHT22;4076;48.076;9.118;2023-02-28T13:08:21;1.20;80.90
8067;DHT22;4076;48.076;9.118;2023-02-28T13:10:50;1.40;79.30
8067;DHT22;4076;48.076;9.118;2023-02-28T13:13:29;1.40;78.40
8067;DHT22;4076;48.076;9.118;2023-02-28T13:16:08;1.40;77.40
8067;DHT22;4076;48.076;9.118;2023-02-28T13:18:39;1.30;75.30
8067;DHT22;4076;48.076;9.118;2023-02-28T13:21:09;1.10;76.20
8067;DHT22;4076;48.076;9.118;2023-02-28T13:34:32;1.20;75.20
8067;DHT22;4076;48.076;9.118;2023-02-28T13:39:51;1.50;76.30
8067;DHT22;4076;48.076;9.118;2023-02-28T13:47:35;2.00;74.30
8067;DHT22;4076;48.076;9.118;2023-02-28T13:50:27;2.00;72.40
8067;DHT22;4076;48.076;9.118;2023-02-28T13:58:34;2.00;71.40
8067;DHT22;4076;48.076;9.118;2023-02-28T14:01:28;2.00;71.30
8067;DHT22;4076;48.076;9.118;2023-02-28T14:06:52;1.80;70.80
8067;DHT22;4076;48.076;9.118;2023-02-28T14:09:31;1.90;70.40
8067;DHT22;4076;48.076;9.118;2023-02-28T14:15:03;1.80;70.40
8067;DHT22;4076;48.076;9.118;2023-02-28T14:17:30;1.70;71.10
8067;DHT22;4076;48.076;9.118;2023-02-28T14:19:57;1.80;70.90
8067;DHT22;4076;48.076;9.118;2023-02-28T14:22:45;1.80;71.00
8067;DHT22;4076;48.076;9.118;2023-02-28T14:28:32;1.90;70.30
8067;DHT22;4076;48.076;9.118;2023-02-28T14:31:23;2.00;70.40
8067;DHT22;4076;48.076;9.118;2023-02-28T14:36:35;2.10;71.20
8067;DHT22;4076;48.076;9.118;2023-02-28T14:39:22;2.20;70.40
8067;DHT22;4076;48.076;9.118;2023-02-28T14:41:48;2.20;69.50
8067;DHT22;4076;48.076;9.118;2023-02-28T14:44:26;2.30;68.80
8067;DHT22;4076;48.076;9.118;2023-02-28T14:46:55;2.30;68.50
8067;DHT22;4076;48.076;9.118;2023-02-28T14:49:34;2.40;69.20
8067;DHT22;4076;48.076;9.118;2023-02-28T14:52:21;2.40;70.10
8067;DHT22;4076;48.076;9.118;2023-02-28T14:55:15;2.50;70.50
8067;DHT22;4076;48.076;9.118;2023-02-28T14:57:55;2.60;69.10
8067;DHT22;4076;48.076;9.118;2023-02-28T15:00:27;2.70;68.90
8067;DHT22;4076;48.076;9.118;2023-02-28T15:02:54;2.80;68.70
8067;DHT22;4076;48.076;9.118;2023-02-28T15:05:27;2.80;69.50
8067;DHT22;4076;48.076;9.118;2023-02-28T15:10:30;2.80;69.20
8067;DHT22;4076;48.076;9.118;2023-02-28T15:12:59;2.80;67.30
8067;DHT22;4076;48.076;9.118;2023-02-28T15:15:38;2.70;67.30
8067;DHT22;4076;48.076;9.118;2023-02-28T15:18:06;2.60;67.60
8067;DHT22;4076;48.076;9.118;2023-02-28T15:20:33;2.50;67.80
8067;DHT22;4076;48.076;9.118;2023-02-28T15:23:01;2.40;68.20
8067;DHT22;4076;48.076;9.118;2023-02-28T15:25:27;2.40;69.00
8067;DHT22;4076;48.076;9.118;2023-02-28T15:27:55;2.40;69.00
8067;DHT22;4076;48.076;9.118;2023-02-28T15:30:28;2.40;68.70
8067;DHT22;4076;48.076;9.118;2023-02-28T15:35:44;2.50;67.20
8067;DHT22;4076;48.076;9.118;2023-02-28T15:38:17;2.40;68.00
8067;DHT22;4076;48.076;9.118;2023-02-28T15:41:04;2.40;68.70
8067;DHT22;4076;48.076;9.118;2023-02-28T15:43:36;2.40;68.20
8067;DHT22;4076;48.076;9.118;2023-02-28T15:48:36;2.30;69.00
8067;DHT22;4076;48.076;9.118;2023-02-28T15:58:44;2.40;68.50
8067;DHT22;4076;48.076;9.118;2023-02-28T16:01:37;2.40;67.50
8067;DHT22;4076;48.076;9.118;2023-02-28T16:04:13;2.40;67.90
8067;DHT22;4076;48.076;9.118;2023-02-28T16:09:25;2.20;67.50
8067;DHT22;4076;48.076;9.118;2023-02-28T16:11:55;2.10;67.80
8067;DHT22;4076;48.076;9.118;2023-02-28T16:14:24;2.10;68.20
8067;DHT22;4076;48.076;9.118;2023-02-28T16:16:54;2.10;67.50
8067;DHT22;4076;48.076;9.118;2023-02-28T16:19:20;2.10;67.30
8067;DHT22;4076;48.076;9.118;2023-02-28T16:21:46;2.10;67.60
8067;DHT22;4076;48.076;9.118;2023-02-28T16:24:13;2.10;67.70
8067;DHT22;4076;48.076;9.118;2023-02-28T16:26:40;2.20;66.30
8067;DHT22;4076;48.076;9.118;2023-02-28T16:29:06;2.10;66.40
8067;DHT22;4076;48.076;9.118;2023-02-28T16:31:36;2.10;66.00
8067;DHT22;4076;48.076;9.118;2023-02-28T16:34:02;2.10;66.50
8067;DHT22;4076;48.076;9.118;2023-02-28T16:36:29;2.00;66.50
8067;DHT22;4076;48.076;9.118;2023-02-28T16:38:55;1.90;66.70
8067;DHT22;4076;48.076;9.118;2023-02-28T16:41:23;1.80;67.10
8067;DHT22;4076;48.076;9.118;2023-02-28T16:43:52;1.80;67.50
8067;DHT22;4076;48.076;9.118;2023-02-28T16:46:19;1.80;67.20
8067;DHT22;4076;48.076;9.118;2023-02-28T16:48:46;1.70;67.60
8067;DHT22;4076;48.076;9.118;2023-02-28T16:51:16;1.60;68.10
8067;DHT22;4076;48.076;9.118;2023-02-28T16:53:43;1.60;68.20
8067;DHT22;4076;48.076;9.118;2023-02-28T16:56:18;1.50;69.00
8067;DHT22;4076;48.076;9.118;2023-02-28T16:58:44;1.50;69.30
8067;DHT22;4076;48.076;9.118;2023-02-28T17:01:10;1.50;69.80
8067;DHT22;4076;48.076;9.118;2023-02-28T17:03:36;1.40;70.20
8067;DHT22;4076;48.076;9.118;2023-02-28T17:06:02;1.40;70.60
8067;DHT22;4076;48.076;9.118;2023-02-28T17:08:28;1.30;70.80
8067;DHT22;4076;48.076;9.118;2023-02-28T17:10:54;1.40;69.80
8067;DHT22;4076;48.076;9.118;2023-02-28T17:13:20;1.30;70.10
8067;DHT22;4076;48.076;9.118;2023-02-28T17:15:46;1.20;70.50
8067;DHT22;4076;48.076;9.118;2023-02-28T17:18:15;1.10;70.60
8067;DHT22;4076;48.076;9.118;2023-02-28T17:20:41;1.00;71.60
8067;DHT22;4076;48.076;9.118;2023-02-28T17:23:07;0.90;72.10
8067;DHT22;4076;48.076;9.118;2023-02-28T17:25:33;0.90;72.50
8067;DHT22;4076;48.076;9.118;2023-02-28T17:27:58;0.80;73.00
8067;DHT22;4076;48.076;9.118;2023-02-28T17:30:26;0.70;73.50
8067;DHT22;4076;48.076;9.118;2023-02-28T17:32:55;0.60;74.10
8067;DHT22;4076;48.076;9.118;2023-02-28T17:35:21;0.50;74.90
8067;DHT22;4076;48.076;9.118;2023-02-28T17:37:47;0.50;74.70
8067;DHT22;4076;48.076;9.118;2023-02-28T17:40:18;0.40;75.50
8067;DHT22;4076;48.076;9.118;2023-02-28T17:42:44;0.30;75.40
8067;DHT22;4076;48.076;9.118;2023-02-28T17:45:11;0.30;75.80
8067;DHT22;4076;48.076;9.118;2023-02-28T17:47:37;0.30;76.50
8067;DHT22;4076;48.076;9.118;2023-02-28T17:50:02;0.20;76.80
8067;DHT22;4076;48.076;9.118;2023-02-28T17:52:28;0.10;76.80
8067;DHT22;4076;48.076;9.118;2023-02-28T17:54:54;0.10;77.20
8067;DHT22;4076;48.076;9.118;2023-02-28T17:57:20;0.00;78.00
8067;DHT22;4076;48.076;9.118;2023-02-28T17:59:46;-0.10;77.60
8067;DHT22;4076;48.076;9.118;2023-02-28T18:02:12;-0.10;78.00
8067;DHT22;4076;48.076;9.118;2023-02-28T18:04:38;-0.20;78.20
8067;DHT22;4076;48.076;9.118;2023-02-28T18:07:05;-0.20;78.90
8067;DHT22;4076;48.076;9.118;2023-02-28T18:09:31;-0.20;79.30
8067;DHT22;4076;48.076;9.118;2023-02-28T18:11:56;-0.20;79.10
8067;DHT22;4076;48.076;9.118;2023-02-28T18:14:24;-0.20;79.70
8067;DHT22;4076;48.076;9.118;2023-02-28T18:16:52;-0.20;79.90
8067;DHT22;4076;48.076;9.118;2023-02-28T18:19:18;-0.20;79.90
8067;DHT22;4076;48.076;9.118;2023-02-28T18:21:45;-0.30;79.90
8067;DHT22;4076;48.076;9.118;2023-02-28T18:24:12;-0.30;80.00
8067;DHT22;4076;48.076;9.118;2023-02-28T18:26:38;-0.40;80.30
8067;DHT22;4076;48.076;9.118;2023-02-28T18:29:05;-0.40;80.40
8067;DHT22;4076;48.076;9.118;2023-02-28T18:31:31;-0.50;81.70
8067;DHT22;4076;48.076;9.118;2023-02-28T18:33:57;-0.50;81.90
8067;DHT22;4076;48.076;9.118;2023-02-28T18:36:23;-0.60;81.60